createdAt,value
2018-09-30T00:00:05.231Z,10.29
2018-09-30T00:02:34.130Z,10.20
2018-09-30T00:05:02.623Z,10.14
2018-09-30T00:07:31.191Z,10.20
2018-09-30T00:10:00.889Z,10.20
2018-09-30T00:12:29.591Z,10.23
2018-09-30T00:14:58.183Z,10.20
2018-09-30T00:17:26.647Z,10.20
2018-09-30T00:19:55.221Z,10.19
2018-09-30T00:22:23.643Z,10.14
2018-09-30T00:24:57.491Z,10.12
2018-09-30T00:27:26.024Z,10.08
2018-09-30T00:29:54.432Z,10.10
2018-09-30T00:32:23.044Z,10.14
2018-09-30T00:34:51.419Z,10.11
2018-09-30T00:37:19.969Z,10.06
2018-09-30T00:39:48.368Z,10.10
2018-09-30T00:42:16.586Z,10.05
2018-09-30T00:44:45.214Z,10.03
2018-09-30T00:47:13.682Z,9.90
2018-09-30T00:49:42.179Z,9.87
2018-09-30T00:52:10.504Z,9.77
2018-09-30T00:54:39.008Z,9.64
2018-09-30T00:57:07.384Z,9.53
2018-09-30T00:59:35.759Z,9.51
2018-09-30T01:02:04.048Z,9.48
2018-09-30T01:04:32.467Z,9.45
2018-09-30T01:07:00.854Z,9.46
2018-09-30T01:09:29.247Z,9.41
2018-09-30T01:11:57.691Z,9.36
2018-09-30T01:14:26.181Z,9.37
2018-09-30T01:16:54.443Z,9.32
2018-09-30T01:19:22.647Z,9.32
2018-09-30T01:21:50.879Z,9.23
2018-09-30T01:24:19.030Z,9.23
2018-09-30T01:26:47.145Z,9.27
2018-09-30T01:29:15.359Z,9.26
2018-09-30T01:31:43.337Z,9.24
2018-09-30T01:34:11.402Z,9.29
2018-09-30T01:36:39.671Z,9.31
2018-09-30T01:39:07.825Z,9.37
2018-09-30T01:41:36.044Z,9.31
2018-09-30T01:44:04.242Z,9.28
2018-09-30T01:46:32.438Z,9.30
2018-09-30T01:49:00.868Z,9.28
2018-09-30T01:51:28.932Z,9.24
2018-09-30T01:53:57.010Z,9.29
2018-09-30T01:56:25.009Z,9.23
2018-09-30T01:58:53.274Z,9.16
2018-09-30T02:01:21.397Z,9.11
2018-09-30T02:03:49.482Z,9.20
2018-09-30T02:06:17.553Z,9.21
2018-09-30T02:08:45.825Z,9.12
2018-09-30T02:11:14.725Z,9.04
2018-09-30T02:13:42.869Z,9.03
2018-09-30T02:16:10.926Z,8.94
2018-09-30T02:18:40.182Z,8.87
2018-09-30T02:21:08.290Z,8.82
2018-09-30T02:23:36.266Z,8.73
2018-09-30T02:26:04.322Z,8.76
2018-09-30T02:28:32.601Z,8.64
2018-09-30T02:31:00.671Z,8.73
2018-09-30T02:33:28.749Z,8.68
2018-09-30T02:35:56.979Z,8.65
2018-09-30T02:38:25.261Z,8.56
2018-09-30T02:40:53.392Z,8.48
2018-09-30T02:43:21.521Z,8.46
2018-09-30T02:45:49.888Z,8.41
2018-09-30T02:48:18.043Z,8.39
2018-09-30T02:50:46.139Z,8.39
2018-09-30T02:53:14.275Z,8.42
2018-09-30T02:55:42.287Z,8.40
2018-09-30T02:58:10.802Z,8.40
2018-09-30T03:00:39.002Z,8.35
2018-09-30T03:03:07.213Z,8.42
2018-09-30T03:05:35.429Z,8.35
2018-09-30T03:08:09.000Z,8.26
2018-09-30T03:10:39.073Z,8.24
2018-09-30T03:13:07.779Z,8.20
2018-09-30T03:15:35.860Z,8.19
2018-09-30T03:18:03.930Z,8.17
2018-09-30T03:20:32.152Z,8.27
2018-09-30T03:23:00.249Z,8.22
2018-09-30T03:25:28.298Z,8.23
2018-09-30T03:27:56.406Z,8.13
2018-09-30T03:30:24.629Z,8.13
2018-09-30T03:32:52.679Z,8.09
2018-09-30T03:35:22.510Z,8.10
2018-09-30T03:37:50.557Z,8.11
2018-09-30T03:40:18.606Z,8.00
2018-09-30T03:42:46.864Z,8.08
2018-09-30T03:45:15.053Z,8.03
2018-09-30T03:47:43.272Z,7.96
2018-09-30T03:50:11.461Z,7.94
2018-09-30T03:52:39.601Z,7.88
2018-09-30T03:55:07.856Z,7.82
2018-09-30T03:57:35.978Z,7.78
2018-09-30T04:00:04.153Z,7.80
2018-09-30T04:02:32.251Z,7.81
2018-09-30T04:05:00.333Z,7.87
2018-09-30T04:07:28.498Z,7.80
2018-09-30T04:09:56.627Z,7.84
2018-09-30T04:12:24.880Z,7.81
2018-09-30T04:14:53.065Z,7.79
2018-09-30T04:17:21.445Z,7.76
2018-09-30T04:19:49.518Z,7.67
2018-09-30T04:22:17.685Z,7.52
2018-09-30T04:24:45.895Z,7.43
2018-09-30T04:27:14.039Z,7.49
2018-09-30T04:29:42.404Z,7.48
2018-09-30T04:32:10.681Z,7.49
2018-09-30T04:34:39.169Z,7.55
2018-09-30T04:37:07.365Z,7.55
2018-09-30T04:39:35.511Z,7.53
2018-09-30T04:42:03.606Z,7.50
2018-09-30T04:44:31.721Z,7.55
2018-09-30T04:47:00.091Z,7.56
2018-09-30T04:49:28.232Z,7.60
2018-09-30T04:51:56.583Z,7.81
2018-09-30T04:54:24.865Z,7.80
2018-09-30T04:56:54.106Z,7.91
2018-09-30T04:59:22.846Z,7.95
2018-09-30T05:01:55.540Z,8.14
2018-09-30T05:04:24.458Z,8.26
2018-09-30T05:06:53.045Z,8.45
2018-09-30T05:09:21.341Z,8.46
2018-09-30T05:11:49.490Z,8.66
2018-09-30T05:14:18.061Z,9.08
2018-09-30T05:16:47.397Z,9.66
2018-09-30T05:19:16.113Z,10.02
2018-09-30T05:21:44.328Z,10.41
2018-09-30T05:24:12.702Z,10.79
2018-09-30T05:26:41.988Z,11.11
2018-09-30T05:29:10.926Z,11.45
2018-09-30T05:31:39.707Z,11.78
2018-09-30T05:34:08.165Z,12.17
2018-09-30T05:36:36.608Z,12.15
2018-09-30T05:39:07.180Z,12.23
2018-09-30T05:41:35.733Z,12.45
2018-09-30T05:44:04.451Z,12.30
2018-09-30T05:46:32.983Z,12.40
2018-09-30T05:49:01.853Z,12.66
2018-09-30T05:51:31.735Z,12.74
2018-09-30T05:54:00.522Z,12.77
2018-09-30T05:56:29.526Z,13.05
2018-09-30T05:58:58.201Z,13.29
2018-09-30T06:01:26.923Z,13.42
2018-09-30T06:03:56.665Z,13.39
2018-09-30T06:06:25.248Z,13.42
2018-09-30T06:08:53.754Z,13.25
2018-09-30T06:11:22.359Z,13.57
2018-09-30T06:13:51.249Z,13.54
2018-09-30T06:16:20.359Z,13.59
2018-09-30T06:18:49.510Z,13.83
2018-09-30T06:21:18.174Z,14.15
2018-09-30T06:23:47.443Z,14.27
2018-09-30T06:26:16.253Z,14.38
2018-09-30T06:28:46.855Z,14.11
2018-09-30T06:31:16.062Z,14.53
2018-09-30T06:33:45.857Z,14.59
2018-09-30T06:36:14.650Z,14.62
2018-09-30T06:38:43.773Z,14.90
2018-09-30T06:41:12.587Z,14.96
2018-09-30T06:43:41.727Z,15.08
2018-09-30T06:46:10.317Z,15.09
2018-09-30T06:48:39.239Z,15.37
2018-09-30T06:51:08.340Z,15.56
2018-09-30T06:53:37.343Z,15.06
2018-09-30T06:56:06.602Z,15.12
2018-09-30T06:58:35.733Z,15.25
2018-09-30T07:01:04.896Z,15.35
2018-09-30T07:03:33.834Z,15.26
2018-09-30T07:06:03.040Z,15.13
2018-09-30T07:08:32.381Z,15.15
2018-09-30T07:11:02.428Z,15.20
2018-09-30T07:13:32.282Z,15.10
2018-09-30T07:16:01.356Z,14.93
2018-09-30T07:18:30.531Z,15.01
2018-09-30T07:20:59.584Z,15.19
2018-09-30T07:23:28.246Z,15.40
2018-09-30T07:25:58.014Z,15.33
2018-09-30T07:28:28.312Z,15.10
2018-09-30T07:30:57.260Z,15.11
2018-09-30T07:33:26.068Z,15.50
2018-09-30T07:35:55.968Z,16.04
2018-09-30T07:38:24.651Z,16.01
2018-09-30T07:40:53.921Z,15.61
2018-09-30T07:43:23.387Z,15.25
2018-09-30T07:45:52.633Z,15.22
2018-09-30T07:48:21.305Z,15.62
2018-09-30T07:50:49.854Z,15.64
2018-09-30T07:53:18.665Z,15.41
2018-09-30T07:55:48.153Z,15.76
2018-09-30T07:58:17.541Z,16.18
2018-09-30T08:00:46.071Z,16.12
2018-09-30T08:03:14.461Z,15.82
2018-09-30T08:05:43.300Z,16.05
2018-09-30T08:08:12.077Z,15.84
2018-09-30T08:10:41.288Z,16.21
2018-09-30T08:13:10.708Z,16.38
2018-09-30T08:15:41.133Z,16.56
2018-09-30T08:18:11.854Z,16.50
2018-09-30T08:20:41.641Z,16.17
2018-09-30T08:23:10.807Z,16.45
2018-09-30T08:25:40.219Z,16.45
2018-09-30T08:28:09.704Z,16.21
2018-09-30T08:30:39.210Z,16.29
2018-09-30T08:33:08.494Z,16.23
2018-09-30T08:35:37.705Z,17.10
2018-09-30T08:38:12.790Z,17.46
2018-09-30T08:40:47.821Z,18.08
2018-09-30T08:43:16.964Z,18.56
2018-09-30T08:45:48.847Z,18.28
2018-09-30T08:48:18.041Z,18.41
2018-09-30T08:50:46.963Z,18.66
2018-09-30T08:53:16.136Z,19.04
2018-09-30T08:55:45.196Z,18.63
2018-09-30T08:58:14.192Z,18.96
2018-09-30T09:00:43.845Z,19.04
2018-09-30T09:03:14.963Z,18.44
2018-09-30T09:05:49.650Z,18.75
2018-09-30T09:08:20.433Z,18.83
2018-09-30T09:10:52.978Z,19.15
2018-09-30T09:13:24.145Z,19.41
2018-09-30T09:15:55.065Z,19.29
2018-09-30T09:18:23.882Z,19.35
2018-09-30T09:20:52.452Z,19.54
2018-09-30T09:23:21.063Z,19.51
2018-09-30T09:25:49.560Z,19.29
2018-09-30T09:28:18.207Z,18.94
2018-09-30T09:30:48.127Z,18.08
2018-09-30T09:33:18.678Z,17.97
2018-09-30T09:35:48.794Z,18.13
2018-09-30T09:38:18.820Z,18.42
2018-09-30T09:40:47.451Z,18.67
2018-09-30T09:43:16.237Z,18.88
2018-09-30T09:45:46.324Z,18.86
2018-09-30T09:48:15.335Z,19.04
2018-09-30T09:50:49.114Z,19.57
2018-09-30T09:53:18.596Z,20.25
2018-09-30T09:55:47.169Z,20.01
2018-09-30T09:58:15.742Z,20.01
2018-09-30T10:00:45.907Z,20.27
2018-09-30T10:03:15.743Z,20.89
2018-09-30T10:05:44.613Z,20.74
2018-09-30T10:08:15.230Z,20.81
2018-09-30T10:10:44.072Z,20.74
2018-09-30T10:15:59.300Z,20.02
2018-09-30T10:18:28.339Z,19.75
2018-09-30T10:20:56.737Z,19.75
2018-09-30T10:23:25.459Z,19.81
2018-09-30T10:25:54.102Z,19.68
2018-09-30T10:28:22.432Z,19.79
2018-09-30T10:30:50.927Z,19.38
2018-09-30T10:33:19.575Z,19.37
2018-09-30T10:35:48.072Z,19.71
2018-09-30T10:38:16.868Z,20.02
2018-09-30T10:40:45.267Z,20.44
2018-09-30T10:43:14.615Z,19.88
2018-09-30T10:45:43.313Z,19.67
2018-09-30T10:48:13.535Z,19.65
2018-09-30T10:50:44.327Z,19.41
2018-09-30T10:53:17.990Z,19.33
2018-09-30T10:55:47.127Z,19.85
2018-09-30T10:58:19.385Z,19.21
2018-09-30T11:00:51.522Z,19.06
2018-09-30T11:03:22.024Z,19.09
2018-09-30T11:05:52.513Z,18.79
2018-09-30T11:08:26.619Z,18.65
2018-09-30T11:11:02.230Z,18.88
2018-09-30T11:13:37.165Z,18.44
2018-09-30T11:16:07.040Z,18.10
2018-09-30T11:18:37.616Z,18.25
2018-09-30T11:21:07.179Z,17.94
2018-09-30T11:23:35.670Z,17.90
2018-09-30T11:26:04.628Z,18.21
2018-09-30T11:28:33.795Z,18.06
2018-09-30T11:31:02.581Z,18.37
2018-09-30T11:33:31.592Z,18.63
2018-09-30T11:35:59.929Z,18.52
2018-09-30T11:38:28.605Z,18.79
2018-09-30T11:40:58.805Z,18.83
2018-09-30T11:43:27.525Z,18.41
2018-09-30T11:45:56.312Z,18.63
2018-09-30T11:48:24.945Z,18.17
2018-09-30T11:50:53.739Z,18.20
2018-09-30T11:53:22.284Z,19.30
2018-09-30T11:55:51.320Z,19.01
2018-09-30T11:58:20.006Z,18.77
2018-09-30T12:00:50.275Z,18.53
2018-09-30T12:03:21.120Z,18.22
2018-09-30T12:05:50.901Z,17.95
2018-09-30T12:08:19.952Z,18.30
2018-09-30T12:10:49.593Z,18.09
2018-09-30T12:13:18.631Z,17.85
2018-09-30T12:15:48.290Z,17.46
2018-09-30T12:18:17.074Z,17.12
2018-09-30T12:20:45.890Z,16.82
2018-09-30T12:23:14.939Z,16.87
2018-09-30T12:25:43.649Z,17.11
2018-09-30T12:28:12.147Z,17.06
2018-09-30T12:30:41.620Z,17.25
2018-09-30T12:33:10.448Z,17.60
2018-09-30T12:35:39.389Z,17.26
2018-09-30T12:38:08.969Z,17.04
2018-09-30T12:40:37.662Z,16.80
2018-09-30T12:43:06.671Z,16.90
2018-09-30T12:45:36.354Z,17.00
2018-09-30T12:48:06.508Z,16.91
2018-09-30T12:50:37.218Z,16.79
2018-09-30T12:53:09.142Z,17.03
2018-09-30T12:55:41.242Z,17.24
2018-09-30T12:58:12.684Z,17.36
2018-09-30T13:00:42.442Z,17.40
2018-09-30T13:03:11.101Z,17.14
2018-09-30T13:05:40.701Z,17.24
2018-09-30T13:08:12.130Z,17.10
2018-09-30T13:10:57.295Z,17.13
2018-09-30T13:13:26.725Z,16.56
2018-09-30T13:15:56.180Z,16.24
2018-09-30T13:18:27.374Z,16.02
2018-09-30T13:20:56.922Z,15.99
2018-09-30T13:23:26.939Z,16.09
2018-09-30T13:25:55.817Z,16.29
2018-09-30T13:28:25.715Z,16.13
2018-09-30T13:30:57.353Z,16.05
2018-09-30T13:33:29.297Z,16.11
2018-09-30T13:36:00.508Z,15.95
2018-09-30T13:38:31.915Z,15.84
2018-09-30T13:41:03.275Z,15.98
2018-09-30T13:43:35.054Z,15.86
2018-09-30T13:46:03.625Z,15.72
2018-09-30T13:48:31.776Z,15.54
2018-09-30T13:51:00.228Z,15.74
2018-09-30T13:53:28.689Z,15.68
2018-09-30T13:55:56.872Z,15.49
2018-09-30T13:58:24.995Z,15.23
2018-09-30T14:00:54.827Z,15.27
2018-09-30T14:03:23.148Z,15.33
2018-09-30T14:05:51.474Z,15.25
2018-09-30T14:08:19.802Z,15.23
2018-09-30T14:10:48.147Z,15.14
2018-09-30T14:13:16.342Z,15.34
2018-09-30T14:15:44.512Z,15.35
2018-09-30T14:18:12.788Z,15.24
2018-09-30T14:20:40.921Z,15.33
2018-09-30T14:23:09.029Z,15.30
2018-09-30T14:25:37.185Z,15.27
2018-09-30T14:28:05.219Z,15.20
2018-09-30T14:30:33.568Z,15.18
2018-09-30T14:33:01.637Z,15.15
2018-09-30T14:35:30.022Z,15.16
2018-09-30T14:37:58.351Z,15.18
2018-09-30T14:40:26.858Z,14.96
2018-09-30T14:42:55.461Z,14.91
2018-09-30T14:45:23.775Z,14.94
2018-09-30T14:47:52.001Z,14.79
2018-09-30T14:50:20.331Z,14.90
2018-09-30T14:52:48.540Z,14.80
2018-09-30T14:55:16.890Z,14.62
2018-09-30T14:57:45.251Z,14.60
2018-09-30T15:00:13.600Z,14.57
2018-09-30T15:05:39.964Z,14.38
2018-09-30T15:08:08.278Z,14.29
2018-09-30T15:10:36.507Z,14.25
2018-09-30T15:13:04.826Z,14.28
2018-09-30T15:15:33.141Z,14.26
2018-09-30T15:18:01.647Z,14.17
2018-09-30T15:20:29.803Z,14.25
2018-09-30T15:22:57.955Z,14.28
2018-09-30T15:25:26.088Z,14.20
2018-09-30T15:27:54.638Z,14.16
2018-09-30T15:30:22.744Z,14.12
2018-09-30T15:32:50.956Z,14.07
2018-09-30T15:35:19.136Z,14.08
2018-09-30T15:37:47.695Z,14.05
2018-09-30T15:40:16.148Z,14.03
2018-09-30T15:42:44.567Z,13.97
2018-09-30T15:45:12.951Z,14.05
2018-09-30T15:47:41.165Z,14.07
2018-09-30T15:50:09.515Z,14.04
2018-09-30T15:52:37.804Z,13.98
2018-09-30T15:55:05.972Z,13.92
2018-09-30T15:57:34.288Z,13.96
2018-09-30T16:00:02.720Z,13.92
2018-09-30T16:02:30.992Z,13.91
2018-09-30T16:04:59.248Z,13.86
2018-09-30T16:07:27.367Z,13.84
2018-09-30T16:09:55.513Z,13.77
2018-09-30T16:12:24.832Z,13.79
2018-09-30T16:14:52.945Z,13.78
2018-09-30T16:17:21.171Z,13.70
2018-09-30T16:19:49.423Z,13.65
2018-09-30T16:22:17.733Z,13.58
2018-09-30T16:24:46.052Z,13.51
2018-09-30T16:27:14.155Z,13.50
2018-09-30T16:29:42.550Z,13.47
2018-09-30T16:32:11.045Z,13.50
2018-09-30T16:34:39.483Z,13.50
2018-09-30T16:37:08.719Z,13.36
2018-09-30T16:39:36.774Z,13.16
2018-09-30T16:42:05.080Z,13.14
2018-09-30T16:44:33.229Z,13.21
2018-09-30T16:47:01.500Z,12.94
2018-09-30T16:49:30.233Z,12.93
2018-09-30T16:51:58.591Z,12.81
2018-09-30T16:54:26.989Z,12.78
2018-09-30T16:56:55.371Z,12.74
2018-09-30T16:59:23.838Z,12.73
2018-09-30T17:01:52.523Z,12.65
2018-09-30T17:04:20.878Z,12.59
2018-09-30T17:06:49.757Z,12.63
2018-09-30T17:09:18.607Z,12.59
2018-09-30T17:11:47.320Z,12.46
2018-09-30T17:14:18.256Z,12.47
2018-09-30T17:16:49.625Z,12.38
2018-09-30T17:19:18.057Z,12.33
2018-09-30T17:21:46.479Z,12.31
2018-09-30T17:24:14.957Z,12.35
2018-09-30T17:26:43.929Z,12.27
2018-09-30T17:29:13.551Z,12.18
2018-09-30T17:31:42.189Z,12.03
2018-09-30T17:34:10.937Z,12.05
2018-09-30T17:36:39.408Z,12.10
2018-09-30T17:39:08.908Z,12.11
2018-09-30T17:41:37.457Z,12.14
2018-09-30T17:44:06.643Z,12.09
2018-09-30T17:46:38.622Z,12.11
2018-09-30T17:49:08.813Z,11.88
2018-09-30T17:51:37.275Z,12.04
2018-09-30T17:54:05.979Z,11.95
2018-09-30T17:56:35.644Z,11.77
2018-09-30T17:59:04.794Z,11.75
2018-09-30T18:01:35.077Z,11.82
2018-09-30T18:04:04.022Z,11.86
2018-09-30T18:06:32.221Z,11.63
2018-09-30T18:09:06.880Z,11.55
2018-09-30T18:11:35.185Z,11.65
2018-09-30T18:14:03.548Z,11.41
2018-09-30T18:16:31.890Z,11.45
2018-09-30T18:19:00.124Z,11.49
2018-09-30T18:21:28.928Z,11.38
2018-09-30T18:23:57.707Z,11.42
2018-09-30T18:26:26.376Z,11.48
2018-09-30T18:28:54.599Z,11.38
2018-09-30T18:31:23.130Z,11.45
2018-09-30T18:33:51.523Z,11.55
2018-09-30T18:36:19.730Z,11.37
2018-09-30T18:38:48.288Z,11.32
2018-09-30T18:41:16.567Z,11.36
2018-09-30T18:43:45.011Z,11.38
2018-09-30T18:46:13.651Z,11.28
2018-09-30T18:48:42.104Z,11.37
2018-09-30T18:51:11.126Z,11.36
2018-09-30T18:53:39.599Z,11.38
2018-09-30T18:56:08.163Z,11.31
2018-09-30T18:58:37.677Z,11.26
2018-09-30T19:01:06.597Z,11.24
2018-09-30T19:03:34.918Z,11.31
2018-09-30T19:06:03.179Z,11.33
2018-09-30T19:08:31.661Z,11.14
2018-09-30T19:11:00.486Z,11.07
2018-09-30T19:13:29.610Z,11.21
2018-09-30T19:15:59.738Z,11.17
2018-09-30T19:18:28.184Z,11.13
2018-09-30T19:20:56.955Z,11.13
2018-09-30T19:23:25.510Z,11.00
2018-09-30T19:25:54.287Z,10.98
2018-09-30T19:28:23.268Z,11.05
2018-09-30T19:30:53.069Z,11.08
2018-09-30T19:33:21.948Z,10.95
2018-09-30T19:35:51.616Z,10.86
2018-09-30T19:38:20.205Z,11.03
2018-09-30T19:40:51.791Z,10.99
2018-09-30T19:43:21.636Z,10.97
2018-09-30T19:45:49.998Z,10.98
2018-09-30T19:48:19.110Z,11.05
2018-09-30T19:50:47.443Z,11.01
2018-09-30T19:53:16.203Z,11.07
2018-09-30T19:55:44.672Z,10.94
2018-09-30T19:58:13.124Z,10.85
2018-09-30T20:00:41.832Z,10.91
2018-09-30T20:03:10.752Z,10.88
2018-09-30T20:05:39.181Z,10.85
2018-09-30T20:08:07.434Z,10.83
2018-09-30T20:10:35.855Z,10.88
2018-09-30T20:13:04.482Z,10.87
2018-09-30T20:15:32.930Z,10.80
2018-09-30T20:18:01.256Z,10.81
2018-09-30T20:20:30.972Z,10.83
2018-09-30T20:23:00.912Z,10.73
2018-09-30T20:25:31.805Z,10.72
2018-09-30T20:28:00.427Z,10.68
2018-09-30T20:30:31.321Z,10.69
2018-09-30T20:33:00.669Z,10.73
2018-09-30T20:35:29.014Z,10.81
2018-09-30T20:37:57.956Z,10.78
2018-09-30T20:40:27.171Z,10.81
2018-09-30T20:42:55.487Z,10.77
2018-09-30T20:45:24.685Z,10.74
2018-09-30T20:47:52.989Z,10.83
2018-09-30T20:50:21.158Z,10.78
2018-09-30T20:52:49.468Z,10.66
2018-09-30T20:55:17.705Z,10.61
2018-09-30T20:57:46.014Z,10.64
2018-09-30T21:00:14.298Z,10.67
2018-09-30T21:02:42.906Z,10.67
2018-09-30T21:05:25.184Z,10.76
2018-09-30T21:07:53.798Z,10.81
2018-09-30T21:10:22.077Z,10.75
2018-09-30T21:12:50.409Z,10.88
2018-09-30T21:15:18.693Z,10.84
2018-09-30T21:17:46.972Z,10.78
2018-09-30T21:20:15.319Z,10.73
2018-09-30T21:22:43.606Z,10.61
2018-09-30T21:25:12.124Z,10.62
2018-09-30T21:27:40.639Z,10.73
2018-09-30T21:30:09.919Z,10.71
2018-09-30T21:32:38.991Z,10.68
2018-09-30T21:35:08.746Z,10.64
2018-09-30T21:37:37.767Z,10.63
2018-09-30T21:40:06.369Z,10.61
2018-09-30T21:42:34.539Z,10.65
2018-09-30T21:45:02.873Z,10.60
2018-09-30T21:47:31.465Z,10.64
2018-09-30T21:50:00.012Z,10.70
2018-09-30T21:52:28.501Z,10.65
2018-09-30T21:54:56.808Z,10.63
2018-09-30T21:57:25.046Z,10.62
2018-09-30T21:59:53.155Z,10.54
2018-09-30T22:02:21.224Z,10.57
2018-09-30T22:04:49.320Z,10.45
2018-09-30T22:07:17.414Z,10.54
2018-09-30T22:09:45.676Z,10.58
2018-09-30T22:12:13.868Z,10.50
2018-09-30T22:14:41.957Z,10.56
2018-09-30T22:17:10.162Z,10.55
2018-09-30T22:19:38.326Z,10.54
2018-09-30T22:22:06.917Z,10.46
2018-09-30T22:24:35.008Z,10.47
2018-09-30T22:27:03.239Z,10.42
2018-09-30T22:29:31.508Z,10.39
2018-09-30T22:31:59.589Z,10.52
2018-09-30T22:34:27.773Z,10.48
2018-09-30T22:36:56.051Z,10.59
2018-09-30T22:39:24.204Z,10.55
2018-09-30T22:41:52.378Z,10.46
2018-09-30T22:44:20.530Z,10.50
2018-09-30T22:46:48.688Z,10.47
2018-09-30T22:49:16.778Z,10.36
2018-09-30T22:51:44.865Z,10.43
2018-09-30T22:54:12.915Z,10.48
2018-09-30T22:56:41.018Z,10.46
2018-09-30T22:59:09.146Z,10.47
2018-09-30T23:01:37.260Z,10.39
2018-09-30T23:04:11.887Z,10.35
2018-09-30T23:06:39.998Z,10.30
2018-09-30T23:09:08.548Z,10.32
2018-09-30T23:11:36.920Z,10.29
2018-09-30T23:14:04.963Z,10.24
2018-09-30T23:16:33.166Z,10.32
2018-09-30T23:19:01.260Z,10.32
2018-09-30T23:21:29.494Z,10.32
2018-09-30T23:23:57.771Z,10.37
2018-09-30T23:26:25.940Z,10.34
2018-09-30T23:28:54.126Z,10.17
2018-09-30T23:31:22.455Z,10.21
2018-09-30T23:33:50.508Z,10.16
2018-09-30T23:36:18.730Z,10.08
2018-09-30T23:38:46.920Z,10.13
2018-09-30T23:41:15.689Z,10.12
2018-09-30T23:43:43.926Z,10.13
2018-09-30T23:46:12.041Z,10.12
2018-09-30T23:48:40.122Z,10.10
2018-09-30T23:51:08.269Z,10.15
2018-09-30T23:53:36.346Z,10.18
2018-09-30T23:56:04.461Z,10.16
2018-09-30T23:58:32.486Z,10.03
